sensor_id;sensor_type;location;lat;lon;timestamp;temperature;humidity
23609;DHT22;11982;50.810;4.442;2023-02-27T00:00:38;0.30;99.90
23609;DHT22;11982;50.810;4.442;2023-02-27T00:03:04;0.30;99.90
23609;DHT22;11982;50.810;4.442;2023-02-27T00:05:30;0.20;99.90
23609;DHT22;11982;50.810;4.442;2023-02-27T00:07:56;0.10;99.90
23609;DHT22;11982;50.810;4.442;2023-02-27T00:10:21;0.10;99.90
23609;DHT22;11982;50.810;4.442;2023-02-27T00:12:47;0.10;99.90
23609;DHT22;11982;50.810;4.442;2023-02-27T00:15:16;0.20;99.90
23609;DHT22;11982;50.810;4.442;2023-02-27T00:17:42;0.20;99.90
23609;DHT22;11982;50.810;4.442;2023-02-27T00:20:10;0.10;99.90
23609;DHT22;11982;50.810;4.442;2023-02-27T00:22:37;0.10;99.90
23609;DHT22;11982;50.810;4.442;2023-02-27T00:25:04;0.10;99.90
23609;DHT22;11982;50.810;4.442;2023-02-27T00:27:30;0.10;99.90
23609;DHT22;11982;50.810;4.442;2023-02-27T00:29:57;0.10;99.90
23609;DHT22;11982;50.810;4.442;2023-02-27T00:32:23;0.10;99.90
23609;DHT22;11982;50.810;4.442;2023-02-27T00:34:49;0.10;99.90
23609;DHT22;11982;50.810;4.442;2023-02-27T00:37:15;0.00;99.90
23609;DHT22;11982;50.810;4.442;2023-02-27T00:39:40;0.00;99.90
23609;DHT22;11982;50.810;4.442;2023-02-27T00:42:06;0.00;99.90
23609;DHT22;11982;50.810;4.442;2023-02-27T00:44:32;-0.10;99.90
23609;DHT22;11982;50.810;4.442;2023-02-27T00:46:58;-0.10;99.90
23609;DHT22;11982;50.810;4.442;2023-02-27T00:49:24;-0.10;99.90
23609;DHT22;11982;50.810;4.442;2023-02-27T00:51:51;-0.10;99.90
23609;DHT22;11982;50.810;4.442;2023-02-27T00:54:16;-0.10;99.90
23609;DHT22;11982;50.810;4.442;2023-02-27T00:56:42;-0.10;99.90
23609;DHT22;11982;50.810;4.442;2023-02-27T00:59:08;-0.20;99.90
23609;DHT22;11982;50.810;4.442;2023-02-27T01:01:34;-0.20;99.90
23609;DHT22;11982;50.810;4.442;2023-02-27T01:04:00;-0.10;99.90
23609;DHT22;11982;50.810;4.442;2023-02-27T01:06:25;-0.10;99.90
23609;DHT22;11982;50.810;4.442;2023-02-27T01:08:51;-0.20;99.90
23609;DHT22;11982;50.810;4.442;2023-02-27T01:11:17;-0.30;99.90
23609;DHT22;11982;50.810;4.442;2023-02-27T01:13:42;-0.40;99.90
23609;DHT22;11982;50.810;4.442;2023-02-27T01:16:11;-0.30;99.90
23609;DHT22;11982;50.810;4.442;2023-02-27T01:18:36;-0.30;99.90
23609;DHT22;11982;50.810;4.442;2023-02-27T01:21:02;-0.30;99.90
23609;DHT22;11982;50.810;4.442;2023-02-27T01:23:28;-0.30;99.90
23609;DHT22;11982;50.810;4.442;2023-02-27T01:25:54;-0.30;99.90
23609;DHT22;11982;50.810;4.442;2023-02-27T01:28:22;-0.30;99.90
23609;DHT22;11982;50.810;4.442;2023-02-27T01:30:47;-0.20;99.90
23609;DHT22;11982;50.810;4.442;2023-02-27T01:33:13;-0.30;99.90
23609;DHT22;11982;50.810;4.442;2023-02-27T01:35:39;-0.30;99.90
23609;DHT22;11982;50.810;4.442;2023-02-27T01:38:05;-0.40;99.90
23609;DHT22;11982;50.810;4.442;2023-02-27T01:40:35;-0.50;99.90
23609;DHT22;11982;50.810;4.442;2023-02-27T01:43:02;-0.50;99.90
23609;DHT22;11982;50.810;4.442;2023-02-27T01:45:39;-0.50;99.90
23609;DHT22;11982;50.810;4.442;2023-02-27T01:48:25;-0.50;99.90
23609;DHT22;11982;50.810;4.442;2023-02-27T01:50:58;-0.50;99.90
23609;DHT22;11982;50.810;4.442;2023-02-27T01:53:26;-0.50;99.90
23609;DHT22;11982;50.810;4.442;2023-02-27T01:58:55;-0.60;99.90
23609;DHT22;11982;50.810;4.442;2023-02-27T02:01:22;-0.50;99.90
23609;DHT22;11982;50.810;4.442;2023-02-27T02:06:29;-0.50;99.90
23609;DHT22;11982;50.810;4.442;2023-02-27T02:08:57;-0.50;99.90
23609;DHT22;11982;50.810;4.442;2023-02-27T02:11:25;-0.60;99.90
23609;DHT22;11982;50.810;4.442;2023-02-27T02:13:56;-0.50;99.90
23609;DHT22;11982;50.810;4.442;2023-02-27T02:16:42;-0.60;99.90
23609;DHT22;11982;50.810;4.442;2023-02-27T02:27:56;-0.60;99.90
23609;DHT22;11982;50.810;4.442;2023-02-27T02:38:46;-0.80;99.90
23609;DHT22;11982;50.810;4.442;2023-02-27T02:46:45;-0.90;99.90
23609;DHT22;11982;50.810;4.442;2023-02-27T02:52:32;-0.90;99.90
23609;DHT22;11982;50.810;4.442;2023-02-27T02:55:01;-0.80;99.90
23609;DHT22;11982;50.810;4.442;2023-02-27T02:59:59;-0.80;99.90
23609;DHT22;11982;50.810;4.442;2023-02-27T03:02:30;-0.90;99.90
23609;DHT22;11982;50.810;4.442;2023-02-27T03:05:08;-0.90;99.90
23609;DHT22;11982;50.810;4.442;2023-02-27T03:12:45;-1.00;99.90
23609;DHT22;11982;50.810;4.442;2023-02-27T03:15:18;-1.10;99.90
23609;DHT22;11982;50.810;4.442;2023-02-27T03:20:29;-0.90;99.90
23609;DHT22;11982;50.810;4.442;2023-02-27T03:23:00;-0.90;99.90
23609;DHT22;11982;50.810;4.442;2023-02-27T03:25:29;-0.90;99.90
23609;DHT22;11982;50.810;4.442;2023-02-27T03:28:02;-0.90;99.90
23609;DHT22;11982;50.810;4.442;2023-02-27T03:30:35;-0.90;99.90
23609;DHT22;11982;50.810;4.442;2023-02-27T03:33:07;-0.90;99.90
23609;DHT22;11982;50.810;4.442;2023-02-27T03:36:05;-0.90;99.90
23609;DHT22;11982;50.810;4.442;2023-02-27T03:38:55;-0.90;99.90
23609;DHT22;11982;50.810;4.442;2023-02-27T03:41:47;-0.90;99.90
23609;DHT22;11982;50.810;4.442;2023-02-27T03:44:39;-1.00;99.90
23609;DHT22;11982;50.810;4.442;2023-02-27T03:47:08;-1.10;99.90
23609;DHT22;11982;50.810;4.442;2023-02-27T03:49:34;-1.00;99.90
23609;DHT22;11982;50.810;4.442;2023-02-27T03:52:00;-1.10;99.90
23609;DHT22;11982;50.810;4.442;2023-02-27T03:54:32;-1.00;99.90
23609;DHT22;11982;50.810;4.442;2023-02-27T03:57:04;-1.10;99.90
23609;DHT22;11982;50.810;4.442;2023-02-27T03:59:31;-1.20;99.90
23609;DHT22;11982;50.810;4.442;2023-02-27T04:01:59;-1.20;99.90
23609;DHT22;11982;50.810;4.442;2023-02-27T04:04:25;-1.20;99.90
23609;DHT22;11982;50.810;4.442;2023-02-27T04:07:02;-1.20;99.90
23609;DHT22;11982;50.810;4.442;2023-02-27T04:13:08;-1.20;99.90
23609;DHT22;11982;50.810;4.442;2023-02-27T04:25:12;-1.20;99.90
23609;DHT22;11982;50.810;4.442;2023-02-27T04:27:47;-1.30;99.90
23609;DHT22;11982;50.810;4.442;2023-02-27T04:36:13;-1.20;99.90
23609;DHT22;11982;50.810;4.442;2023-02-27T04:41:52;-1.20;99.90
23609;DHT22;11982;50.810;4.442;2023-02-27T04:44:19;-1.20;99.90
23609;DHT22;11982;50.810;4.442;2023-02-27T04:46:46;-1.20;99.90
23609;DHT22;11982;50.810;4.442;2023-02-27T04:51:50;-1.30;99.90
23609;DHT22;11982;50.810;4.442;2023-02-27T04:54:39;-1.20;99.90
23609;DHT22;11982;50.810;4.442;2023-02-27T04:57:08;-1.30;99.90
23609;DHT22;11982;50.810;4.442;2023-02-27T04:59:47;-1.30;99.90
23609;DHT22;11982;50.810;4.442;2023-02-27T05:02:22;-1.30;99.90
23609;DHT22;11982;50.810;4.442;2023-02-27T05:04:52;-1.30;99.90
23609;DHT22;11982;50.810;4.442;2023-02-27T05:07:24;-1.30;99.90
23609;DHT22;11982;50.810;4.442;2023-02-27T05:09:56;-1.30;99.90
23609;DHT22;11982;50.810;4.442;2023-02-27T05:15:25;-1.30;99.90
23609;DHT22;11982;50.810;4.442;2023-02-27T05:18:02;-1.30;99.90
23609;DHT22;11982;50.810;4.442;2023-02-27T05:25:57;-1.30;99.90
23609;DHT22;11982;50.810;4.442;2023-02-27T05:28:52;-1.30;99.90
23609;DHT22;11982;50.810;4.442;2023-02-27T05:31:33;-1.40;99.90
23609;DHT22;11982;50.810;4.442;2023-02-27T05:37:09;-1.40;99.90
23609;DHT22;11982;50.810;4.442;2023-02-27T05:39:37;-1.40;99.90
23609;DHT22;11982;50.810;4.442;2023-02-27T05:42:16;-1.40;99.90
23609;DHT22;11982;50.810;4.442;2023-02-27T05:44:49;-1.40;99.90
23609;DHT22;11982;50.810;4.442;2023-02-27T05:47:19;-1.30;99.90
23609;DHT22;11982;50.810;4.442;2023-02-27T05:49:56;-1.20;99.90
23609;DHT22;11982;50.810;4.442;2023-02-27T05:52:25;-1.20;99.90
23609;DHT22;11982;50.810;4.442;2023-02-27T05:55:14;-1.40;99.90
23609;DHT22;11982;50.810;4.442;2023-02-27T05:57:48;-1.40;99.90
23609;DHT22;11982;50.810;4.442;2023-02-27T06:00:36;-1.40;99.90
23609;DHT22;11982;50.810;4.442;2023-02-27T06:03:03;-1.40;99.90
23609;DHT22;11982;50.810;4.442;2023-02-27T06:05:29;-1.40;99.90
23609;DHT22;11982;50.810;4.442;2023-02-27T06:07:55;-1.50;99.90
23609;DHT22;11982;50.810;4.442;2023-02-27T06:10:21;-1.50;99.90
23609;DHT22;11982;50.810;4.442;2023-02-27T06:12:47;-1.60;99.90
23609;DHT22;11982;50.810;4.442;2023-02-27T06:15:13;-1.60;99.90
23609;DHT22;11982;50.810;4.442;2023-02-27T06:17:39;-1.60;99.90
23609;DHT22;11982;50.810;4.442;2023-02-27T06:20:05;-1.60;99.90
23609;DHT22;11982;50.810;4.442;2023-02-27T06:22:32;-1.60;99.90
23609;DHT22;11982;50.810;4.442;2023-02-27T06:24:58;-1.60;99.90
23609;DHT22;11982;50.810;4.442;2023-02-27T06:27:23;-1.50;99.90
23609;DHT22;11982;50.810;4.442;2023-02-27T06:29:51;-1.50;99.90
23609;DHT22;11982;50.810;4.442;2023-02-27T06:32:18;-1.40;99.90
23609;DHT22;11982;50.810;4.442;2023-02-27T06:34:44;-1.40;99.90
23609;DHT22;11982;50.810;4.442;2023-02-27T06:37:09;-1.50;99.90
23609;DHT22;11982;50.810;4.442;2023-02-27T06:39:35;-1.50;99.90
23609;DHT22;11982;50.810;4.442;2023-02-27T06:42:01;-1.60;99.90
23609;DHT22;11982;50.810;4.442;2023-02-27T06:44:26;-1.50;99.90
23609;DHT22;11982;50.810;4.442;2023-02-27T06:46:52;-1.50;99.90
23609;DHT22;11982;50.810;4.442;2023-02-27T06:49:18;-1.40;99.90
23609;DHT22;11982;50.810;4.442;2023-02-27T06:51:43;-1.40;99.90
23609;DHT22;11982;50.810;4.442;2023-02-27T06:54:09;-1.30;99.90
23609;DHT22;11982;50.810;4.442;2023-02-27T06:56:35;-1.30;99.90
23609;DHT22;11982;50.810;4.442;2023-02-27T06:59:00;-1.30;99.90
23609;DHT22;11982;50.810;4.442;2023-02-27T07:01:26;-1.30;99.90
23609;DHT22;11982;50.810;4.442;2023-02-27T07:03:52;-1.20;99.90
23609;DHT22;11982;50.810;4.442;2023-02-27T07:06:17;-1.30;99.90
23609;DHT22;11982;50.810;4.442;2023-02-27T07:08:43;-1.30;99.90
23609;DHT22;11982;50.810;4.442;2023-02-27T07:11:09;-1.30;99.90
23609;DHT22;11982;50.810;4.442;2023-02-27T07:13:34;-1.30;99.90
23609;DHT22;11982;50.810;4.442;2023-02-27T07:16:00;-1.20;99.90
23609;DHT22;11982;50.810;4.442;2023-02-27T07:18:26;-1.20;99.90
23609;DHT22;11982;50.810;4.442;2023-02-27T07:20:52;-1.20;99.90
23609;DHT22;11982;50.810;4.442;2023-02-27T07:23:22;-1.10;99.90
23609;DHT22;11982;50.810;4.442;2023-02-27T07:25:48;-1.20;99.90
23609;DHT22;11982;50.810;4.442;2023-02-27T07:28:14;-1.10;99.90
23609;DHT22;11982;50.810;4.442;2023-02-27T07:30:40;-1.00;99.90
23609;DHT22;11982;50.810;4.442;2023-02-27T07:33:06;-1.00;99.90
23609;DHT22;11982;50.810;4.442;2023-02-27T07:35:32;-0.90;99.90
23609;DHT22;11982;50.810;4.442;2023-02-27T07:37:57;-0.90;99.90
23609;DHT22;11982;50.810;4.442;2023-02-27T07:40:23;-1.00;99.90
23609;DHT22;11982;50.810;4.442;2023-02-27T07:42:49;-0.80;99.90
23609;DHT22;11982;50.810;4.442;2023-02-27T07:45:16;-0.70;99.90
23609;DHT22;11982;50.810;4.442;2023-02-27T07:47:45;-0.80;99.90
23609;DHT22;11982;50.810;4.442;2023-02-27T07:50:11;-0.70;99.90
23609;DHT22;11982;50.810;4.442;2023-02-27T07:52:41;-0.70;99.90
23609;DHT22;11982;50.810;4.442;2023-02-27T07:55:08;-0.60;99.90
23609;DHT22;11982;50.810;4.442;2023-02-27T07:57:35;-0.60;99.90
23609;DHT22;11982;50.810;4.442;2023-02-27T08:00:01;-0.50;99.90
23609;DHT22;11982;50.810;4.442;2023-02-27T08:02:27;-0.50;99.90
23609;DHT22;11982;50.810;4.442;2023-02-27T08:04:53;-0.60;99.90
23609;DHT22;11982;50.810;4.442;2023-02-27T08:07:18;-0.50;99.90
23609;DHT22;11982;50.810;4.442;2023-02-27T08:09:44;-0.50;99.90
23609;DHT22;11982;50.810;4.442;2023-02-27T08:12:10;-0.50;99.90
23609;DHT22;11982;50.810;4.442;2023-02-27T08:14:35;-0.40;99.90
23609;DHT22;11982;50.810;4.442;2023-02-27T08:17:01;-0.30;99.90
23609;DHT22;11982;50.810;4.442;2023-02-27T08:19:27;-0.20;99.90
23609;DHT22;11982;50.810;4.442;2023-02-27T08:21:53;-0.20;99.90
23609;DHT22;11982;50.810;4.442;2023-02-27T08:24:19;-0.10;99.90
23609;DHT22;11982;50.810;4.442;2023-02-27T08:26:44;-0.10;99.90
23609;DHT22;11982;50.810;4.442;2023-02-27T08:29:10;0.00;99.90
23609;DHT22;11982;50.810;4.442;2023-02-27T08:31:36;0.00;99.90
23609;DHT22;11982;50.810;4.442;2023-02-27T08:34:01;0.10;99.90
23609;DHT22;11982;50.810;4.442;2023-02-27T08:36:27;0.20;99.90
23609;DHT22;11982;50.810;4.442;2023-02-27T08:38:53;0.20;99.90
23609;DHT22;11982;50.810;4.442;2023-02-27T08:41:18;0.20;99.90
23609;DHT22;11982;50.810;4.442;2023-02-27T08:43:44;0.40;99.90
23609;DHT22;11982;50.810;4.442;2023-02-27T08:46:10;0.40;99.90
23609;DHT22;11982;50.810;4.442;2023-02-27T08:48:35;0.50;99.90
23609;DHT22;11982;50.810;4.442;2023-02-27T08:51:04;0.50;99.90
23609;DHT22;11982;50.810;4.442;2023-02-27T08:53:29;0.50;99.90
23609;DHT22;11982;50.810;4.442;2023-02-27T08:55:55;0.60;99.90
23609;DHT22;11982;50.810;4.442;2023-02-27T08:58:20;0.70;99.90
23609;DHT22;11982;50.810;4.442;2023-02-27T09:00:46;0.80;99.90
23609;DHT22;11982;50.810;4.442;2023-02-27T09:03:12;0.80;99.90
23609;DHT22;11982;50.810;4.442;2023-02-27T09:05:38;0.90;99.90
23609;DHT22;11982;50.810;4.442;2023-02-27T09:08:04;1.00;99.90
23609;DHT22;11982;50.810;4.442;2023-02-27T09:10:31;1.20;99.90
23609;DHT22;11982;50.810;4.442;2023-02-27T09:13:00;1.30;99.90
23609;DHT22;11982;50.810;4.442;2023-02-27T09:15:26;1.30;99.90
23609;DHT22;11982;50.810;4.442;2023-02-27T09:17:52;1.40;99.90
23609;DHT22;11982;50.810;4.442;2023-02-27T09:20:21;1.40;99.90
23609;DHT22;11982;50.810;4.442;2023-02-27T09:22:46;1.40;99.90
23609;DHT22;11982;50.810;4.442;2023-02-27T09:25:12;1.40;99.90
23609;DHT22;11982;50.810;4.442;2023-02-27T09:27:38;1.50;99.90
23609;DHT22;11982;50.810;4.442;2023-02-27T09:30:04;1.40;99.90
23609;DHT22;11982;50.810;4.442;2023-02-27T09:32:30;1.60;99.90
23609;DHT22;11982;50.810;4.442;2023-02-27T09:34:56;1.60;99.90
23609;DHT22;11982;50.810;4.442;2023-02-27T09:37:23;1.50;99.90
23609;DHT22;11982;50.810;4.442;2023-02-27T09:39:49;1.60;99.90
23609;DHT22;11982;50.810;4.442;2023-02-27T09:42:36;1.70;99.90
23609;DHT22;11982;50.810;4.442;2023-02-27T09:45:08;1.80;99.90
23609;DHT22;11982;50.810;4.442;2023-02-27T09:47:44;1.80;99.90
23609;DHT22;11982;50.810;4.442;2023-02-27T09:52:47;2.00;99.90
23609;DHT22;11982;50.810;4.442;2023-02-27T09:55:20;2.10;99.90
23609;DHT22;11982;50.810;4.442;2023-02-27T09:58:03;2.20;99.90
23609;DHT22;11982;50.810;4.442;2023-02-27T10:00:50;2.20;99.90
23609;DHT22;11982;50.810;4.442;2023-02-27T10:06:26;2.40;99.90
23609;DHT22;11982;50.810;4.442;2023-02-27T10:12:06;2.50;99.90
23609;DHT22;11982;50.810;4.442;2023-02-27T10:15:09;2.50;99.90
23609;DHT22;11982;50.810;4.442;2023-02-27T10:17:40;2.60;99.90
23609;DHT22;11982;50.810;4.442;2023-02-27T10:20:16;2.70;99.90
23609;DHT22;11982;50.810;4.442;2023-02-27T10:22:45;2.70;99.90
23609;DHT22;11982;50.810;4.442;2023-02-27T10:25:15;2.80;99.90
23609;DHT22;11982;50.810;4.442;2023-02-27T10:27:43;2.90;99.90
23609;DHT22;11982;50.810;4.442;2023-02-27T10:30:23;3.10;99.90
23609;DHT22;11982;50.810;4.442;2023-02-27T10:32:56;3.10;99.90
23609;DHT22;11982;50.810;4.442;2023-02-27T10:35:44;3.20;99.90
23609;DHT22;11982;50.810;4.442;2023-02-27T10:38:15;3.20;99.90
23609;DHT22;11982;50.810;4.442;2023-02-27T10:40:42;3.10;99.90
23609;DHT22;11982;50.810;4.442;2023-02-27T10:43:12;3.20;99.90
23609;DHT22;11982;50.810;4.442;2023-02-27T10:45:39;3.30;99.90
23609;DHT22;11982;50.810;4.442;2023-02-27T10:48:05;3.50;99.90
23609;DHT22;11982;50.810;4.442;2023-02-27T10:50:38;3.50;99.90
23609;DHT22;11982;50.810;4.442;2023-02-27T10:53:17;3.50;99.90
23609;DHT22;11982;50.810;4.442;2023-02-27T10:55:55;3.60;99.90
23609;DHT22;11982;50.810;4.442;2023-02-27T10:58:21;3.60;99.90
23609;DHT22;11982;50.810;4.442;2023-02-27T11:00:56;3.80;99.90
23609;DHT22;11982;50.810;4.442;2023-02-27T11:03:32;3.90;99.90
23609;DHT22;11982;50.810;4.442;2023-02-27T11:06:08;3.80;99.90
23609;DHT22;11982;50.810;4.442;2023-02-27T11:08:36;3.80;99.90
23609;DHT22;11982;50.810;4.442;2023-02-27T11:11:06;3.90;99.90
23609;DHT22;11982;50.810;4.442;2023-02-27T11:13:39;3.80;99.90
23609;DHT22;11982;50.810;4.442;2023-02-27T11:18:42;3.70;99.90
23609;DHT22;11982;50.810;4.442;2023-02-27T11:21:21;3.70;99.90
23609;DHT22;11982;50.810;4.442;2023-02-27T11:23:54;3.60;99.90
23609;DHT22;11982;50.810;4.442;2023-02-27T11:31:44;3.80;99.90
23609;DHT22;11982;50.810;4.442;2023-02-27T11:34:27;3.90;99.90
23609;DHT22;11982;50.810;4.442;2023-02-27T11:36:56;4.00;99.90
23609;DHT22;11982;50.810;4.442;2023-02-27T11:39:35;3.90;99.90
23609;DHT22;11982;50.810;4.442;2023-02-27T11:42:17;4.10;99.90
23609;DHT22;11982;50.810;4.442;2023-02-27T11:44:53;4.10;99.90
23609;DHT22;11982;50.810;4.442;2023-02-27T11:47:24;4.20;99.90
23609;DHT22;11982;50.810;4.442;2023-02-27T11:55:49;4.50;99.90
23609;DHT22;11982;50.810;4.442;2023-02-27T11:58:20;4.50;99.90
23609;DHT22;11982;50.810;4.442;2023-02-27T12:01:05;4.60;99.90
23609;DHT22;11982;50.810;4.442;2023-02-27T12:06:34;4.60;99.90
23609;DHT22;11982;50.810;4.442;2023-02-27T12:09:13;4.50;99.90
23609;DHT22;11982;50.810;4.442;2023-02-27T12:11:46;4.40;99.90
23609;DHT22;11982;50.810;4.442;2023-02-27T12:14:34;4.70;99.90
23609;DHT22;11982;50.810;4.442;2023-02-27T12:17:17;4.90;99.90
23609;DHT22;11982;50.810;4.442;2023-02-27T12:22:41;4.60;99.90
23609;DHT22;11982;50.810;4.442;2023-02-27T12:25:37;4.50;99.90
23609;DHT22;11982;50.810;4.442;2023-02-27T12:28:37;4.60;99.90
23609;DHT22;11982;50.810;4.442;2023-02-27T12:37:03;4.60;99.90
23609;DHT22;11982;50.810;4.442;2023-02-27T12:39:32;4.60;99.90
23609;DHT22;11982;50.810;4.442;2023-02-27T12:50:34;4.80;99.90
23609;DHT22;11982;50.810;4.442;2023-02-27T12:53:27;4.90;99.90
23609;DHT22;11982;50.810;4.442;2023-02-27T12:56:20;5.00;99.90
23609;DHT22;11982;50.810;4.442;2023-02-27T12:59:05;5.20;99.90
23609;DHT22;11982;50.810;4.442;2023-02-27T13:01:50;5.30;99.90
23609;DHT22;11982;50.810;4.442;2023-02-27T13:04:25;5.20;99.90
23609;DHT22;11982;50.810;4.442;2023-02-27T13:07:08;5.00;99.90
23609;DHT22;11982;50.810;4.442;2023-02-27T13:09:45;4.90;99.90
23609;DHT22;11982;50.810;4.442;2023-02-27T13:12:38;5.00;99.90
23609;DHT22;11982;50.810;4.442;2023-02-27T13:15:28;5.00;99.90
23609;DHT22;11982;50.810;4.442;2023-02-27T13:20:39;5.00;99.90
23609;DHT22;11982;50.810;4.442;2023-02-27T13:23:29;5.20;99.90
23609;DHT22;11982;50.810;4.442;2023-02-27T13:25:58;5.20;99.90
23609;DHT22;11982;50.810;4.442;2023-02-27T13:28:27;5.10;99.90
23609;DHT22;11982;50.810;4.442;2023-02-27T13:36:17;5.20;99.90
23609;DHT22;11982;50.810;4.442;2023-02-27T13:38:48;5.10;99.90
23609;DHT22;11982;50.810;4.442;2023-02-27T13:43:58;5.30;99.90
23609;DHT22;11982;50.810;4.442;2023-02-27T13:46:33;5.40;99.90
23609;DHT22;11982;50.810;4.442;2023-02-27T13:54:27;5.20;99.90
23609;DHT22;11982;50.810;4.442;2023-02-27T14:02:16;5.30;99.90
23609;DHT22;11982;50.810;4.442;2023-02-27T14:04:52;5.30;99.90
23609;DHT22;11982;50.810;4.442;2023-02-27T14:07:22;5.50;99.90
23609;DHT22;11982;50.810;4.442;2023-02-27T14:10:00;5.30;99.90
23609;DHT22;11982;50.810;4.442;2023-02-27T14:12:38;5.30;99.90
23609;DHT22;11982;50.810;4.442;2023-02-27T14:17:54;5.40;99.90
23609;DHT22;11982;50.810;4.442;2023-02-27T14:28:50;5.40;99.90
23609;DHT22;11982;50.810;4.442;2023-02-27T14:31:35;5.40;99.90
23609;DHT22;11982;50.810;4.442;2023-02-27T14:34:03;5.50;99.90
23609;DHT22;11982;50.810;4.442;2023-02-27T14:36:33;5.40;99.90
23609;DHT22;11982;50.810;4.442;2023-02-27T14:39:00;5.20;99.90
23609;DHT22;11982;50.810;4.442;2023-02-27T14:41:57;5.20;99.90
23609;DHT22;11982;50.810;4.442;2023-02-27T14:44:26;5.20;99.90
23609;DHT22;11982;50.810;4.442;2023-02-27T14:46:54;5.30;99.90
23609;DHT22;11982;50.810;4.442;2023-02-27T14:49:29;5.30;99.90
23609;DHT22;11982;50.810;4.442;2023-02-27T14:51:56;5.40;99.90
23609;DHT22;11982;50.810;4.442;2023-02-27T14:54:34;5.30;99.90
23609;DHT22;11982;50.810;4.442;2023-02-27T14:57:03;5.30;99.90
23609;DHT22;11982;50.810;4.442;2023-02-27T14:59:44;5.40;99.90
23609;DHT22;11982;50.810;4.442;2023-02-27T15:04:41;5.30;99.90
23609;DHT22;11982;50.810;4.442;2023-02-27T15:07:17;5.30;99.90
23609;DHT22;11982;50.810;4.442;2023-02-27T15:09:46;5.50;99.90
23609;DHT22;11982;50.810;4.442;2023-02-27T15:12:18;5.40;99.90
23609;DHT22;11982;50.810;4.442;2023-02-27T15:15:05;5.30;99.90
23609;DHT22;11982;50.810;4.442;2023-02-27T15:17:41;5.30;99.90
23609;DHT22;11982;50.810;4.442;2023-02-27T15:20:26;5.30;99.90
23609;DHT22;11982;50.810;4.442;2023-02-27T15:22:57;5.40;99.90
23609;DHT22;11982;50.810;4.442;2023-02-27T15:25:36;5.40;99.90
23609;DHT22;11982;50.810;4.442;2023-02-27T15:28:04;5.30;99.90
23609;DHT22;11982;50.810;4.442;2023-02-27T15:30:31;5.50;99.90
23609;DHT22;11982;50.810;4.442;2023-02-27T15:32:57;5.60;99.90
23609;DHT22;11982;50.810;4.442;2023-02-27T15:35:29;5.60;99.90
23609;DHT22;11982;50.810;4.442;2023-02-27T15:37:57;5.40;99.90
23609;DHT22;11982;50.810;4.442;2023-02-27T15:40:27;5.30;99.90
23609;DHT22;11982;50.810;4.442;2023-02-27T15:42:54;5.10;99.90
23609;DHT22;11982;50.810;4.442;2023-02-27T15:45:34;5.00;99.90
23609;DHT22;11982;50.810;4.442;2023-02-27T15:48:00;5.00;99.90
23609;DHT22;11982;50.810;4.442;2023-02-27T15:50:32;5.00;99.90
23609;DHT22;11982;50.810;4.442;2023-02-27T15:55:36;5.20;99.90
23609;DHT22;11982;50.810;4.442;2023-02-27T15:58:09;5.30;99.90
23609;DHT22;11982;50.810;4.442;2023-02-27T16:00:39;5.20;99.90
23609;DHT22;11982;50.810;4.442;2023-02-27T16:03:06;5.10;99.90
23609;DHT22;11982;50.810;4.442;2023-02-27T16:05:35;5.00;99.90
23609;DHT22;11982;50.810;4.442;2023-02-27T16:08:03;5.00;99.90
23609;DHT22;11982;50.810;4.442;2023-02-27T16:10:38;4.90;99.90
23609;DHT22;11982;50.810;4.442;2023-02-27T16:13:30;4.80;99.90
23609;DHT22;11982;50.810;4.442;2023-02-27T16:16:21;4.80;99.90
23609;DHT22;11982;50.810;4.442;2023-02-27T16:18:50;4.80;99.90
23609;DHT22;11982;50.810;4.442;2023-02-27T16:21:21;4.80;99.90
23609;DHT22;11982;50.810;4.442;2023-02-27T16:23:47;4.80;99.90
23609;DHT22;11982;50.810;4.442;2023-02-27T16:26:32;4.90;99.90
23609;DHT22;11982;50.810;4.442;2023-02-27T16:29:30;4.80;99.90
23609;DHT22;11982;50.810;4.442;2023-02-27T16:31:56;4.70;99.90
23609;DHT22;11982;50.810;4.442;2023-02-27T16:34:38;4.60;99.90
23609;DHT22;11982;50.810;4.442;2023-02-27T16:37:23;4.60;99.90
23609;DHT22;11982;50.810;4.442;2023-02-27T16:39:51;4.50;99.90
23609;DHT22;11982;50.810;4.442;2023-02-27T16:42:19;4.40;99.90
23609;DHT22;11982;50.810;4.442;2023-02-27T16:44:45;4.40;99.90
23609;DHT22;11982;50.810;4.442;2023-02-27T16:47:11;4.40;99.90
23609;DHT22;11982;50.810;4.442;2023-02-27T16:49:37;4.40;99.90
23609;DHT22;11982;50.810;4.442;2023-02-27T16:52:07;4.40;99.90
23609;DHT22;11982;50.810;4.442;2023-02-27T16:54:33;4.40;99.90
23609;DHT22;11982;50.810;4.442;2023-02-27T16:57:00;4.30;99.90
23609;DHT22;11982;50.810;4.442;2023-02-27T16:59:31;4.20;99.90
23609;DHT22;11982;50.810;4.442;2023-02-27T17:02:00;4.20;99.90
23609;DHT22;11982;50.810;4.442;2023-02-27T17:04:27;4.10;99.90
23609;DHT22;11982;50.810;4.442;2023-02-27T17:06:55;4.10;99.90
23609;DHT22;11982;50.810;4.442;2023-02-27T17:09:21;4.00;99.90
23609;DHT22;11982;50.810;4.442;2023-02-27T17:11:47;4.00;99.90
23609;DHT22;11982;50.810;4.442;2023-02-27T17:14:13;3.90;99.90
23609;DHT22;11982;50.810;4.442;2023-02-27T17:16:39;3.90;99.90
23609;DHT22;11982;50.810;4.442;2023-02-27T17:19:05;3.80;99.90
23609;DHT22;11982;50.810;4.442;2023-02-27T17:21:31;3.80;99.90
23609;DHT22;11982;50.810;4.442;2023-02-27T17:23:58;3.80;99.90
23609;DHT22;11982;50.810;4.442;2023-02-27T17:26:24;3.70;99.90
23609;DHT22;11982;50.810;4.442;2023-02-27T17:28:52;3.70;99.90
23609;DHT22;11982;50.810;4.442;2023-02-27T17:31:18;3.60;99.90
23609;DHT22;11982;50.810;4.442;2023-02-27T17:33:48;3.60;99.90
23609;DHT22;11982;50.810;4.442;2023-02-27T17:36:15;3.50;99.90
23609;DHT22;11982;50.810;4.442;2023-02-27T17:38:40;3.50;99.90
23609;DHT22;11982;50.810;4.442;2023-02-27T17:41:10;3.50;99.90
23609;DHT22;11982;50.810;4.442;2023-02-27T17:43:36;3.40;99.90
23609;DHT22;11982;50.810;4.442;2023-02-27T17:46:07;3.40;99.90
23609;DHT22;11982;50.810;4.442;2023-02-27T17:48:34;3.30;99.90
23609;DHT22;11982;50.810;4.442;2023-02-27T17:51:08;3.30;99.90
23609;DHT22;11982;50.810;4.442;2023-02-27T17:53:34;3.30;99.90
23609;DHT22;11982;50.810;4.442;2023-02-27T17:56:00;3.30;99.90
23609;DHT22;11982;50.810;4.442;2023-02-27T17:58:26;3.50;99.90
23609;DHT22;11982;50.810;4.442;2023-02-27T18:00:51;3.50;99.90
23609;DHT22;11982;50.810;4.442;2023-02-27T18:03:17;3.50;99.90
23609;DHT22;11982;50.810;4.442;2023-02-27T18:05:51;3.40;99.90
23609;DHT22;11982;50.810;4.442;2023-02-27T18:08:17;3.50;99.90
23609;DHT22;11982;50.810;4.442;2023-02-27T18:10:50;3.50;99.90
23609;DHT22;11982;50.810;4.442;2023-02-27T18:13:17;3.50;99.90
23609;DHT22;11982;50.810;4.442;2023-02-27T18:15:44;3.50;99.90
23609;DHT22;11982;50.810;4.442;2023-02-27T18:18:10;3.60;99.90
23609;DHT22;11982;50.810;4.442;2023-02-27T18:20:37;3.60;99.90
23609;DHT22;11982;50.810;4.442;2023-02-27T18:23:03;3.50;99.90
23609;DHT22;11982;50.810;4.442;2023-02-27T18:25:29;3.70;99.90
23609;DHT22;11982;50.810;4.442;2023-02-27T18:27:55;3.80;99.90
23609;DHT22;11982;50.810;4.442;2023-02-27T18:30:21;3.80;99.90
23609;DHT22;11982;50.810;4.442;2023-02-27T18:32:47;3.80;99.90
23609;DHT22;11982;50.810;4.442;2023-02-27T18:35:13;3.80;99.90
23609;DHT22;11982;50.810;4.442;2023-02-27T18:37:39;3.70;99.90
23609;DHT22;11982;50.810;4.442;2023-02-27T18:40:05;3.80;99.90